Time;durP1;ratioP1;P1;durP2;ratioP2;P2;SDS_P1;SDS_P2;PMS_P1;PMS_P2;Temp;Humidity;BMP_temperature;BMP_pressure;BME280_temperature;BME280_humidity;BME280_pressure;Samples;Min_cycle;Max_cycle;Signal;HPM_P1;HPM_P2
2023/09/08 00:02:03;;;;;;;8.20;7.40;;;;;;;19.56;59.25;96493.19;4967211;28;20716;-70
2023/09/08 00:04:29;;;;;;;13.63;8.20;;;;;;;19.52;59.14;96498.84;4966688;28;20173;-69
2023/09/08 00:06:54;;;;;;;9.70;8.20;;;;;;;19.46;59.19;96492.19;4966877;28;20193;-69
2023/09/08 00:09:19;;;;;;;7.70;6.83;;;;;;;19.45;59.42;96491.34;4966865;28;20200;-72
2023/09/08 00:11:45;;;;;;;10.43;8.17;;;;;;;19.56;58.84;96485.19;4966825;28;20624;-69
2023/09/08 00:14:10;;;;;;;9.70;7.90;;;;;;;19.44;59.21;96494.97;4966390;28;20197;-69
2023/09/08 00:16:37;;;;;;;12.80;8.10;;;;;;;19.51;58.93;96490.00;4966819;28;20212;-73
2023/09/08 00:19:02;;;;;;;10.30;7.57;;;;;;;19.44;59.01;96494.13;4967134;28;20236;-71
2023/09/08 00:21:27;;;;;;;11.50;7.80;;;;;;;19.42;59.00;96493.41;4967129;28;20733;-71
2023/09/08 00:23:53;;;;;;;8.27;7.47;;;;;;;19.39;59.17;96493.63;4966893;28;20203;-70
2023/09/08 00:26:19;;;;;;;8.47;7.47;;;;;;;19.33;59.24;96486.97;4967062;28;20231;-67
2023/09/08 00:28:44;;;;;;;9.20;7.67;;;;;;;19.31;59.02;96482.75;4967352;28;20649;-70
2023/09/08 00:31:10;;;;;;;9.50;7.97;;;;;;;19.23;59.49;96486.84;4967358;28;20174;-71
2023/09/08 00:33:35;;;;;;;11.73;7.93;;;;;;;19.06;60.16;96481.13;4966736;28;20181;-70
2023/09/08 00:36:01;;;;;;;9.17;8.10;;;;;;;19.19;59.76;96487.19;4967130;28;20534;-71
2023/09/08 00:38:26;;;;;;;10.23;7.93;;;;;;;19.09;60.04;96487.06;4967221;28;20265;-70
2023/09/08 00:40:52;;;;;;;44.47;11.60;;;;;;;19.15;59.83;96488.41;4966909;28;20227;-68
2023/09/08 00:43:18;;;;;;;10.97;8.93;;;;;;;19.11;59.57;96489.59;4966374;28;20182;-69
2023/09/08 00:45:43;;;;;;;9.90;7.97;;;;;;;19.12;59.51;96489.47;4966672;28;20220;-69
2023/09/08 00:48:09;;;;;;;11.70;7.70;;;;;;;19.10;59.74;96494.06;4966738;28;20421;-71
2023/09/08 00:50:36;;;;;;;12.40;8.03;;;;;;;18.76;60.55;96496.63;4966802;28;20285;-70
2023/09/08 00:53:04;;;;;;;9.27;8.07;;;;;;;18.94;60.43;96493.53;4968778;28;20191;-69
2023/09/08 00:55:31;;;;;;;9.53;8.03;;;;;;;18.58;61.29;96493.50;4970128;28;20475;-69
2023/09/08 00:57:57;;;;;;;13.27;9.40;;;;;;;18.75;60.97;96497.56;4968939;28;20436;-70
2023/09/08 01:00:22;;;;;;;8.60;7.80;;;;;;;18.75;60.87;96494.06;4968581;28;20883;-71
2023/09/08 01:02:47;;;;;;;11.00;7.70;;;;;;;18.76;60.71;96493.09;4970182;28;20562;-68
2023/09/08 01:05:14;;;;;;;9.23;7.60;;;;;;;18.73;60.87;96496.84;4970223;28;20177;-71
2023/09/08 01:07:40;;;;;;;9.03;7.67;;;;;;;18.75;60.82;96499.38;4968842;28;20248;-71
2023/09/08 01:10:06;;;;;;;7.33;6.50;;;;;;;18.88;60.56;96494.88;4970273;28;20417;-69
2023/09/08 01:12:34;;;;;;;11.33;7.57;;;;;;;18.95;60.38;96495.25;4970163;28;20425;-71
2023/09/08 01:15:00;;;;;;;10.17;8.70;;;;;;;18.63;61.28;96490.50;4969823;28;20182;-70
2023/09/08 01:17:26;;;;;;;10.27;8.00;;;;;;;18.58;61.33;96493.50;4970346;28;20417;-71
2023/09/08 01:19:55;;;;;;;8.20;7.40;;;;;;;18.62;61.18;96491.47;4970063;28;20463;-69
2023/09/08 01:23:08;;;;;;;8.93;7.53;;;;;;;18.60;61.41;96483.59;4970269;28;20966;-70
2023/09/08 01:25:40;;;;;;;12.60;7.57;;;;;;;18.59;61.18;96486.38;4968277;28;20452;-70
2023/09/08 01:28:06;;;;;;;10.27;8.43;;;;;;;18.66;60.98;96484.97;4970500;28;20612;-70
2023/09/08 01:30:33;;;;;;;10.00;7.87;;;;;;;18.58;61.10;96482.88;4970174;28;20417;-71
2023/09/08 01:32:59;;;;;;;10.00;8.80;;;;;;;18.52;61.41;96493.09;4969861;28;20479;-69
2023/09/08 01:35:25;;;;;;;8.50;7.20;;;;;;;18.49;61.49;96488.03;4969352;28;20463;-69
2023/09/08 01:37:50;;;;;;;11.83;8.90;;;;;;;18.47;61.29;96485.47;4968000;28;20174;-69
2023/09/08 01:40:18;;;;;;;10.40;8.20;;;;;;;18.52;60.97;96482.47;4969543;28;20499;-71
2023/09/08 01:42:44;;;;;;;9.00;8.10;;;;;;;18.57;60.96;96477.69;4969462;28;20181;-70
2023/09/08 01:45:10;;;;;;;10.57;7.90;;;;;;;18.61;60.87;96482.66;4969643;28;20839;-72
2023/09/08 01:47:36;;;;;;;8.33;7.03;;;;;;;18.58;60.85;96479.38;4969989;28;20413;-71
2023/09/08 01:50:01;;;;;;;9.43;7.97;;;;;;;18.61;60.60;96482.66;4969586;28;20332;-71
2023/09/08 01:52:27;;;;;;;11.57;8.20;;;;;;;18.61;60.57;96476.47;4970123;28;20542;-69
2023/09/08 01:54:52;;;;;;;11.33;8.73;;;;;;;18.54;60.76;96476.13;4969672;28;20183;-72
2023/09/08 01:57:19;;;;;;;14.00;8.43;;;;;;;18.46;60.98;96477.63;4969660;28;20665;-72
2023/09/08 01:59:44;;;;;;;10.03;7.93;;;;;;;18.46;60.73;96469.66;4969991;28;20205;-72
2023/09/08 02:02:10;;;;;;;9.57;8.60;;;;;;;18.41;60.86;96470.84;4969461;28;20785;-71
2023/09/08 02:04:36;;;;;;;9.07;8.00;;;;;;;18.47;60.75;96474.00;4968787;28;20177;-71
2023/09/08 02:07:03;;;;;;;11.00;7.93;;;;;;;18.47;60.68;96469.53;4969100;28;20439;-68
2023/09/08 02:09:33;;;;;;;9.90;7.27;;;;;;;18.37;60.93;96472.03;4969081;28;20192;-69
2023/09/08 02:11:59;;;;;;;11.67;8.37;;;;;;;18.35;60.92;96471.31;4969016;28;20413;-69
2023/09/08 02:14:24;;;;;;;8.57;7.77;;;;;;;18.23;61.14;96480.16;4968507;28;20413;-69
2023/09/08 02:16:50;;;;;;;8.40;7.60;;;;;;;18.30;60.90;96457.50;4969230;28;20433;-70
2023/09/08 02:19:15;;;;;;;8.10;7.40;;;;;;;18.24;61.18;96465.94;4969047;28;20178;-71
2023/09/08 02:21:41;;;;;;;14.97;8.27;;;;;;;18.24;61.09;96455.31;4969002;28;20315;-71
2023/09/08 02:24:06;;;;;;;9.93;7.67;;;;;;;18.28;61.19;96474.53;4968605;28;20174;-70
2023/09/08 02:26:33;;;;;;;9.80;8.10;;;;;;;18.17;61.35;96468.19;4968611;28;20513;-69
2023/09/08 02:28:59;;;;;;;12.10;8.50;;;;;;;18.21;61.42;96466.16;4968739;28;20635;-71
2023/09/08 02:31:25;;;;;;;10.50;8.47;;;;;;;18.19;61.03;96471.59;4968561;28;20413;-71
2023/09/08 02:33:51;;;;;;;11.60;8.50;;;;;;;18.08;61.47;96466.22;4968270;28;20413;-70
2023/09/08 02:36:16;;;;;;;10.63;8.70;;;;;;;18.11;61.69;96468.63;4968369;28;20732;-70
2023/09/08 02:38:41;;;;;;;11.30;8.70;;;;;;;18.09;61.84;96475.84;4968619;28;20289;-71
2023/09/08 02:41:07;;;;;;;10.07;8.33;;;;;;;17.98;61.86;96467.84;4968621;28;20289;-70
2023/09/08 02:43:32;;;;;;;9.43;7.80;;;;;;;17.90;62.29;96463.06;4968204;28;20253;-70
2023/09/08 02:45:57;;;;;;;9.43;8.40;;;;;;;17.80;62.45;96471.78;4967987;28;20609;-70
2023/09/08 02:48:24;;;;;;;10.20;8.93;;;;;;;17.86;62.45;96476.66;4967850;28;20199;-70
2023/09/08 02:50:50;;;;;;;9.10;7.60;;;;;;;17.90;62.19;96476.34;4967764;28;20257;-70
2023/09/08 02:53:15;;;;;;;16.23;9.90;;;;;;;18.02;61.97;96479.06;4967877;28;20524;-71
2023/09/08 02:55:40;;;;;;;10.03;8.00;;;;;;;17.99;62.00;96477.50;4968048;28;20205;-69
2023/09/08 02:58:06;;;;;;;9.27;8.33;;;;;;;18.04;61.91;96479.81;4968072;28;20185;-70
2023/09/08 03:00:31;;;;;;;9.93;8.97;;;;;;;18.10;61.60;96482.88;4968052;28;20221;-69
2023/09/08 03:02:56;;;;;;;9.17;8.33;;;;;;;18.21;61.28;96479.44;4968428;28;20170;-70
2023/09/08 03:05:22;;;;;;;11.50;8.60;;;;;;;17.96;62.09;96481.22;4967732;28;20192;-70
2023/09/08 03:07:49;;;;;;;9.87;8.50;;;;;;;17.90;62.31;96486.13;4968697;28;20173;-71
2023/09/08 03:10:14;;;;;;;10.10;8.83;;;;;;;17.89;62.16;96477.31;4968318;28;20179;-71
2023/09/08 03:12:39;;;;;;;10.30;9.17;;;;;;;17.93;62.10;96476.16;4968020;28;20824;-71
2023/09/08 03:15:05;;;;;;;11.83;9.63;;;;;;;17.69;62.95;96472.53;4966915;28;20190;-70
2023/09/08 03:17:31;;;;;;;11.20;8.73;;;;;;;17.65;62.87;96471.94;4968089;28;20181;-71
2023/09/08 03:19:56;;;;;;;9.87;8.40;;;;;;;17.67;63.29;96469.16;4967661;28;20460;-71
2023/09/08 03:22:22;;;;;;;12.70;8.67;;;;;;;17.59;63.10;96472.34;4967627;28;20173;-70
2023/09/08 03:24:47;;;;;;;9.67;8.77;;;;;;;17.73;62.86;96468.72;4967309;28;20720;-71
2023/09/08 03:27:12;;;;;;;11.23;8.73;;;;;;;17.80;62.39;96471.78;4967831;28;20276;-71
2023/09/08 03:29:38;;;;;;;9.90;8.90;;;;;;;17.79;62.16;96476.25;4967935;28;20177;-70
2023/09/08 03:32:04;;;;;;;9.20;8.20;;;;;;;17.78;62.24;96472.72;4967611;28;20166;-71
2023/09/08 03:34:29;;;;;;;10.70;8.90;;;;;;;17.87;61.67;96473.06;4967701;28;20196;-70
2023/09/08 03:36:54;;;;;;;9.77;8.73;;;;;;;17.77;61.89;96472.88;4968635;28;20851;-70
2023/09/08 03:39:20;;;;;;;10.33;9.27;;;;;;;17.73;62.31;96469.56;4973048;28;20254;-69
2023/09/08 03:41:45;;;;;;;13.43;9.80;;;;;;;17.71;62.16;96465.31;4973731;28;20197;-70
2023/09/08 03:44:11;;;;;;;10.53;9.37;;;;;;;17.73;62.24;96464.25;4973252;28;20173;-70
2023/09/08 03:46:37;;;;;;;11.00;9.40;;;;;;;17.54;62.80;96475.31;4974565;28;20211;-70
2023/09/08 03:49:02;;;;;;;13.17;8.53;;;;;;;17.48;62.82;96473.13;4968049;28;20216;-68
2023/09/08 03:51:28;;;;;;;9.37;8.57;;;;;;;17.41;63.42;96466.56;4967712;28;20221;-71
2023/09/08 03:53:54;;;;;;;9.53;8.60;;;;;;;17.44;63.46;96466.34;4967276;28;20185;-70
2023/09/08 03:56:22;;;;;;;13.63;9.27;;;;;;;17.51;63.52;96467.59;4968800;28;20200;-71
2023/09/08 03:58:48;;;;;;;11.07;9.93;;;;;;;17.51;63.39;96464.94;4967705;28;20308;-70
2023/09/08 04:01:14;;;;;;;9.33;8.37;;;;;;;17.53;63.37;96463.03;4967129;28;20567;-71
2023/09/08 04:03:39;;;;;;;10.50;8.93;;;;;;;17.54;63.48;96463.88;4967114;28;21001;-71
2023/09/08 04:06:04;;;;;;;11.43;8.77;;;;;;;17.49;63.54;96464.19;4967274;28;20186;-70
2023/09/08 04:08:30;;;;;;;10.23;8.80;;;;;;;17.44;63.79;96462.84;4966901;28;20265;-70
2023/09/08 04:10:55;;;;;;;10.37;8.87;;;;;;;17.43;63.65;96464.63;4966709;28;20169;-71
2023/09/08 04:13:20;;;;;;;11.20;8.87;;;;;;;17.40;63.94;96475.44;4966485;28;20204;-69
2023/09/08 04:15:46;;;;;;;13.63;9.60;;;;;;;17.35;64.23;96474.94;4966969;28;20780;-70
2023/09/08 04:18:11;;;;;;;10.40;8.87;;;;;;;17.37;63.70;96473.03;4966926;28;20919;-70
2023/09/08 04:20:37;;;;;;;10.00;8.40;;;;;;;17.34;64.01;96474.09;4966622;28;20776;-71
2023/09/08 04:23:02;;;;;;;18.57;12.10;;;;;;;17.39;63.76;96472.94;4966671;28;20173;-71
2023/09/08 04:25:27;;;;;;;13.57;8.90;;;;;;;17.43;63.67;96477.88;4966592;28;20674;-70
2023/09/08 04:27:53;;;;;;;20.53;9.40;;;;;;;17.50;63.38;96473.88;4968515;28;20177;-71
2023/09/08 04:30:18;;;;;;;10.43;9.43;;;;;;;17.40;63.32;96479.91;4971150;28;20165;-71
2023/09/08 04:32:44;;;;;;;10.17;9.17;;;;;;;17.29;63.77;96472.69;4966172;28;20177;-70
2023/09/08 04:35:09;;;;;;;11.83;9.53;;;;;;;17.26;63.72;96484.38;4971764;28;20181;-70
2023/09/08 04:37:36;;;;;;;32.57;12.83;;;;;;;17.18;64.17;96485.88;4988452;28;20251;-70
2023/09/08 04:40:02;;;;;;;15.77;10.70;;;;;;;17.24;64.11;96488.09;4986199;28;20229;-70
2023/09/08 04:42:29;;;;;;;16.10;9.90;;;;;;;17.24;64.17;96488.09;4971751;28;20491;-70
2023/09/08 04:44:54;;;;;;;11.40;9.60;;;;;;;17.38;63.47;96495.94;4971371;28;20421;-70
2023/09/08 04:47:19;;;;;;;12.00;10.00;;;;;;;17.47;62.76;96497.94;4971157;28;21165;-70
2023/09/08 04:49:45;;;;;;;11.37;9.40;;;;;;;17.41;62.95;96497.53;4971360;28;20178;-69
2023/09/08 04:52:11;;;;;;;10.87;8.90;;;;;;;17.51;62.42;96496.78;4969472;28;20289;-71
2023/09/08 04:54:36;;;;;;;10.73;9.40;;;;;;;17.64;62.11;96510.03;4970530;28;20192;-71
2023/09/08 04:57:02;;;;;;;15.17;9.60;;;;;;;17.52;62.11;96511.72;4970338;28;20548;-71
2023/09/08 04:59:28;;;;;;;12.67;8.17;;;;;;;17.54;61.88;96507.16;4970017;28;20715;-71
2023/09/08 05:01:53;;;;;;;10.03;8.13;;;;;;;17.64;61.37;96507.38;4967140;28;20257;-71
2023/09/08 05:04:19;;;;;;;17.53;10.07;;;;;;;17.42;62.50;96513.34;4965196;28;20227;-71
2023/09/08 05:06:44;;;;;;;12.43;9.63;;;;;;;17.40;62.48;96503.78;4977878;28;20208;-70
2023/09/08 05:09:10;;;;;;;10.77;8.73;;;;;;;17.44;62.82;96511.44;4966490;28;20739;-69
2023/09/08 05:11:35;;;;;;;11.30;9.00;;;;;;;17.39;62.48;96510.06;4966832;28;20209;-72
2023/09/08 05:14:01;;;;;;;17.03;10.63;;;;;;;17.33;63.04;96516.63;4971415;28;20193;-72
2023/09/08 05:16:37;;;;;;;14.90;10.50;;;;;;;17.46;62.39;96498.91;4974306;28;20236;-68
2023/09/08 05:19:05;;;;;;;18.30;10.70;;;;;;;17.55;62.14;96502.72;4971019;28;20436;-69
2023/09/08 05:21:32;;;;;;;21.10;9.57;;;;;;;17.51;62.47;96498.59;4966381;28;20468;-71
2023/09/08 05:23:57;;;;;;;14.87;11.07;;;;;;;17.67;61.89;96509.81;4966074;28;20444;-69
2023/09/08 05:26:23;;;;;;;15.33;12.70;;;;;;;17.67;61.46;96509.81;4970134;28;20467;-71
2023/09/08 05:28:48;;;;;;;12.60;10.83;;;;;;;17.74;61.47;96512.88;4972285;28;20240;-71
2023/09/08 05:31:14;;;;;;;16.27;8.63;;;;;;;18.58;63.22;96516.59;4968462;28;20169;-71
2023/09/08 05:33:39;;;;;;;38.63;10.47;;;;;;;19.00;59.82;96514.38;4966626;28;20244;-70
2023/09/08 05:36:04;;;;;;;12.67;11.17;;;;;;;18.33;59.84;96518.41;4967378;28;20328;-69
2023/09/08 05:38:30;;;;;;;12.50;9.87;;;;;;;18.97;57.93;96519.94;4964533;28;20193;-69
2023/09/08 05:40:56;;;;;;;16.50;10.50;;;;;;;20.07;54.24;96508.66;4966776;28;20205;-70
2023/09/08 05:43:22;;;;;;;14.77;9.47;;;;;;;21.02;51.61;96508.00;4966630;28;20244;-69
2023/09/08 05:45:48;;;;;;;29.00;11.93;;;;;;;22.16;48.07;96501.75;4967156;28;20528;-69
2023/09/08 05:48:13;;;;;;;11.80;9.73;;;;;;;22.57;47.49;96497.19;4964136;28;20465;-69
2023/09/08 05:50:38;;;;;;;12.43;9.13;;;;;;;23.24;45.79;96500.03;4962921;28;20597;-70
2023/09/08 05:53:04;;;;;;;14.57;9.10;;;;;;;23.62;44.75;96500.91;4966117;28;20194;-69
2023/09/08 05:55:29;;;;;;;12.10;9.37;;;;;;;23.89;43.53;96500.16;4965911;28;20237;-69
2023/09/08 05:57:55;;;;;;;22.37;10.47;;;;;;;24.33;42.56;96500.38;4967655;28;20197;-69
2023/09/08 06:00:20;;;;;;;12.33;9.10;;;;;;;24.55;42.07;96504.50;4964398;28;20757;-69
2023/09/08 06:02:46;;;;;;;11.03;9.67;;;;;;;24.99;41.21;96504.56;4964551;28;20655;-69
2023/09/08 06:05:11;;;;;;;27.40;11.50;;;;;;;25.45;40.37;96502.63;4963859;28;20185;-68
2023/09/08 06:07:37;;;;;;;10.63;9.10;;;;;;;25.69;39.71;96501.09;4962142;28;20184;-69
2023/09/08 06:10:03;;;;;;;14.20;10.10;;;;;;;25.85;39.09;96493.13;4965489;28;20625;-69
2023/09/08 06:12:28;;;;;;;11.10;10.00;;;;;;;26.21;38.70;96494.81;4963974;28;20177;-70
2023/09/08 06:14:54;;;;;;;20.37;10.20;;;;;;;26.13;38.87;96503.69;4964621;28;20471;-70
2023/09/08 06:17:19;;;;;;;11.83;10.03;;;;;;;25.16;41.13;96502.88;4973554;28;20288;-69
2023/09/08 06:19:45;;;;;;;12.50;10.17;;;;;;;25.42;40.27;96505.63;4971821;28;20272;-69
2023/09/08 06:22:10;;;;;;;18.23;9.60;;;;;;;25.34;40.83;96498.31;4963843;28;20181;-69
2023/09/08 06:24:36;;;;;;;17.70;10.50;;;;;;;24.95;41.71;96508.56;4961312;28;20956;-68
2023/09/08 06:27:01;;;;;;;14.47;9.97;;;;;;;25.05;41.41;96503.94;4962974;28;20288;-70
2023/09/08 06:29:26;;;;;;;10.77;9.67;;;;;;;24.82;41.96;96497.38;4967968;28;20481;-69
2023/09/08 06:31:52;;;;;;;12.30;9.50;;;;;;;24.80;42.02;96500.19;4962966;28;20236;-70
2023/09/08 06:34:21;;;;;;;17.03;8.80;;;;;;;25.04;41.65;96499.59;4964859;28;20185;-69
2023/09/08 06:36:46;;;;;;;11.47;9.63;;;;;;;25.39;40.86;96489.78;4969776;28;20220;-70
2023/09/08 06:39:12;;;;;;;11.00;9.13;;;;;;;25.40;41.52;96485.28;4966355;28;20888;-70
2023/09/08 06:41:38;;;;;;;10.33;9.23;;;;;;;24.96;42.63;96499.50;4965151;28;20248;-70
2023/09/08 06:44:04;;;;;;;10.50;9.50;;;;;;;24.81;42.65;96501.06;4966012;28;20182;-70
2023/09/08 06:46:30;;;;;;;13.23;9.60;;;;;;;25.07;42.84;96498.44;4969909;28;20569;-70
2023/09/08 06:48:55;;;;;;;11.97;10.87;;;;;;;24.84;43.41;96501.59;4965934;28;20461;-71
2023/09/08 06:51:21;;;;;;;13.77;9.30;;;;;;;25.13;42.92;96495.97;4961639;28;20185;-70
2023/09/08 06:53:55;;;;;;;11.13;10.10;;;;;;;24.48;44.11;96495.38;4966018;28;20189;-70
2023/09/08 06:56:21;;;;;;;11.80;10.70;;;;;;;23.67;45.91;96501.34;4968053;28;20253;-67
2023/09/08 06:58:46;;;;;;;11.17;9.07;;;;;;;24.49;46.56;96499.72;4968431;28;20409;-69
2023/09/08 07:01:12;;;;;;;11.17;7.80;;;;;;;25.05;44.99;96498.59;4968388;28;20247;-68
2023/09/08 07:03:37;;;;;;;15.07;10.57;;;;;;;25.50;44.03;96496.78;4967523;28;20222;-69
2023/09/08 07:06:03;;;;;;;15.50;9.17;;;;;;;25.47;43.84;96506.00;4968419;28;20200;-69
2023/09/08 07:08:29;;;;;;;15.73;9.60;;;;;;;25.78;42.10;96503.66;4968306;28;20697;-69
2023/09/08 07:10:55;;;;;;;11.50;10.40;;;;;;;25.37;42.05;96502.56;4968416;28;20413;-69
2023/09/08 07:13:21;;;;;;;15.20;9.90;;;;;;;24.87;43.35;96512.00;4967822;28;20236;-70
2023/09/08 07:15:46;;;;;;;12.67;8.87;;;;;;;25.63;42.23;96501.72;4968180;28;20267;-70
2023/09/08 07:18:12;;;;;;;12.53;11.00;;;;;;;24.96;42.91;96510.25;4968200;28;20325;-69
2023/09/08 07:20:37;;;;;;;12.20;10.90;;;;;;;24.65;43.53;96504.41;4968655;28;20296;-69
2023/09/08 07:23:03;;;;;;;11.10;10.00;;;;;;;24.80;44.42;96512.78;4967037;28;20181;-69
2023/09/08 07:25:28;;;;;;;10.63;9.53;;;;;;;24.42;44.05;96510.16;4968636;28;20526;-69
2023/09/08 07:27:53;;;;;;;12.93;11.53;;;;;;;24.32;44.86;96508.56;4967869;28;20189;-69
2023/09/08 07:30:20;;;;;;;12.20;11.00;;;;;;;24.29;44.78;96504.34;4967838;28;20177;-69
2023/09/08 07:32:45;;;;;;;13.83;10.70;;;;;;;24.40;45.73;96503.28;4968299;28;20212;-69
2023/09/08 07:35:14;;;;;;;12.77;10.93;;;;;;;24.48;44.66;96504.25;4964684;28;20433;-70
2023/09/08 07:37:40;;;;;;;12.03;10.83;;;;;;;24.46;44.96;96508.91;4966144;28;20272;-69
2023/09/08 07:40:09;;;;;;;12.23;11.10;;;;;;;24.04;45.32;96508.56;4965743;28;20468;-70
2023/09/08 07:42:34;;;;;;;12.60;10.17;;;;;;;25.01;44.16;96510.63;4964790;28;20523;-69
2023/09/08 07:45:00;;;;;;;11.67;10.50;;;;;;;25.01;44.33;96510.63;4967566;28;20468;-70
2023/09/08 07:47:25;;;;;;;11.00;9.77;;;;;;;25.50;42.87;96511.03;4965428;28;20201;-72
2023/09/08 07:49:51;;;;;;;13.93;10.57;;;;;;;25.46;43.16;96511.50;4966759;28;20185;-72
2023/09/08 07:52:16;;;;;;;13.07;11.37;;;;;;;25.69;42.12;96501.91;4970454;28;20186;-73
2023/09/08 07:54:42;;;;;;;10.40;8.73;;;;;;;26.68;40.64;96505.91;4964526;28;20213;-72
2023/09/08 07:57:07;;;;;;;11.97;10.60;;;;;;;26.22;40.02;96502.72;4965965;28;20201;-72
2023/09/08 07:59:33;;;;;;;12.70;11.40;;;;;;;24.77;43.98;96518.47;4969488;28;20290;-73
2023/09/08 08:01:58;;;;;;;13.10;11.83;;;;;;;24.85;44.30;96523.88;4967776;28;20280;-74
2023/09/08 08:04:24;;;;;;;14.73;11.00;;;;;;;25.29;43.23;96515.94;4965072;28;20196;-69
2023/09/08 08:06:49;;;;;;;17.53;13.50;;;;;;;25.54;42.42;96514.28;4979391;28;20876;-72
2023/09/08 08:09:15;;;;;;;11.87;10.67;;;;;;;26.61;40.49;96508.41;4970435;28;20691;-70
2023/09/08 08:11:41;;;;;;;13.93;12.50;;;;;;;26.09;41.19;96513.09;4965754;28;20308;-73
2023/09/08 08:14:06;;;;;;;13.73;10.17;;;;;;;27.07;40.05;96507.13;4964993;28;20279;-69
2023/09/08 08:16:32;;;;;;;11.80;10.73;;;;;;;26.87;39.86;96501.25;4971191;28;20471;-68
2023/09/08 08:18:58;;;;;;;22.80;10.47;;;;;;;27.27;39.47;96496.91;4966164;28;20193;-68
2023/09/08 08:21:24;;;;;;;14.20;9.97;;;;;;;26.75;40.32;96498.03;4971146;28;20565;-68
2023/09/08 08:23:51;;;;;;;11.73;10.60;;;;;;;27.05;39.48;96493.84;4965106;28;20440;-68
2023/09/08 08:26:17;;;;;;;13.27;9.50;;;;;;;27.01;39.85;96489.81;4960326;28;20221;-68
2023/09/08 08:28:43;;;;;;;12.27;11.10;;;;;;;26.95;39.08;96493.16;4967551;28;20515;-69
2023/09/08 08:31:09;;;;;;;18.63;10.60;;;;;;;26.13;41.15;96495.63;4969576;28;20427;-70
2023/09/08 08:33:34;;;;;;;15.50;11.80;;;;;;;25.90;41.65;96492.66;4977582;28;20276;-70
2023/09/08 08:36:00;;;;;;;20.83;12.90;;;;;;;26.19;41.44;96492.28;4984051;28;20217;-70
2023/09/08 08:38:26;;;;;;;12.47;10.60;;;;;;;26.43;41.02;96496.06;4979597;28;20535;-69
2023/09/08 08:40:51;;;;;;;18.87;10.63;;;;;;;26.30;41.52;96492.00;4980417;28;20335;-70
2023/09/08 08:43:17;;;;;;;12.70;10.80;;;;;;;26.99;39.91;96489.97;4966775;28;20192;-69
2023/09/08 08:45:43;;;;;;;17.93;9.10;;;;;;;27.18;39.47;96487.94;4966073;28;20570;-68
2023/09/08 08:48:08;;;;;;;13.57;10.90;;;;;;;26.90;39.88;96488.25;4970651;28;20647;-71
2023/09/08 08:50:35;;;;;;;12.83;11.53;;;;;;;26.28;40.82;96488.63;4968252;28;20176;-70
2023/09/08 08:53:02;;;;;;;13.57;10.60;;;;;;;27.18;39.64;96487.94;4966359;28;20185;-70
2023/09/08 08:55:29;;;;;;;11.43;10.37;;;;;;;27.45;38.58;96481.41;4964147;28;20543;-68
2023/09/08 08:58:00;;;;;;;15.73;12.53;;;;;;;26.85;39.16;96484.41;4973376;28;20461;-70
2023/09/08 09:00:27;;;;;;;24.83;20.17;;;;;;;26.43;40.58;96487.97;4969512;28;20463;-69
2023/09/08 09:02:53;;;;;;;21.90;16.90;;;;;;;26.77;40.17;96480.69;4963625;28;20517;-70
2023/09/08 09:05:19;;;;;;;24.53;18.03;;;;;;;27.21;39.14;96487.63;4965027;28;21235;-69
2023/09/08 09:07:44;;;;;;;23.27;16.60;;;;;;;28.27;36.93;96481.16;4966259;28;20436;-69
2023/09/08 09:10:10;;;;;;;22.97;15.17;;;;;;;28.76;36.37;96485.50;4965417;28;20178;-68
2023/09/08 09:12:39;;;;;;;26.00;17.67;;;;;;;28.81;35.80;96480.38;4966655;28;20713;-70
2023/09/08 09:15:07;;;;;;;17.73;13.40;;;;;;;28.49;36.78;96485.81;4967746;28;20200;-69
2023/09/08 09:17:34;;;;;;;22.80;13.53;;;;;;;27.95;38.15;96480.28;4969274;28;20532;-70
2023/09/08 09:20:32;;;;;;;21.90;14.30;;;;;;;27.20;38.83;96470.63;4968205;28;21012;-70
2023/09/08 09:22:58;;;;;;;13.33;10.87;;;;;;;27.91;37.99;96473.56;4971066;28;20542;-70
2023/09/08 09:25:31;;;;;;;21.97;14.17;;;;;;;27.30;39.00;96473.16;4969102;28;20866;-69
2023/09/08 09:27:59;;;;;;;21.43;13.20;;;;;;;27.33;39.21;96474.66;4972174;28;20173;-70
2023/09/08 09:30:25;;;;;;;16.50;11.63;;;;;;;27.82;39.31;96474.56;4977039;28;20442;-70
2023/09/08 09:33:04;;;;;;;15.00;11.30;;;;;;;27.99;37.07;96469.97;4967747;28;20528;-70
2023/09/08 09:35:44;;;;;;;15.70;14.30;;;;;;;27.28;38.41;96471.63;4965684;28;20579;-71
2023/09/08 09:38:11;;;;;;;17.10;14.67;;;;;;;27.62;38.25;96468.72;4967895;28;20511;-70
2023/09/08 09:40:37;;;;;;;14.80;13.23;;;;;;;26.56;39.21;96483.00;4966969;28;20530;-70
2023/09/08 09:43:05;;;;;;;15.87;14.20;;;;;;;26.73;40.07;96479.34;4973764;28;20433;-71
2023/09/08 09:45:33;;;;;;;17.13;14.40;;;;;;;27.27;38.67;96473.50;4965616;28;20547;-69
2023/09/08 09:47:59;;;;;;;13.70;10.23;;;;;;;27.69;38.29;96469.72;4968183;28;20752;-70
2023/09/08 09:50:35;;;;;;;9.43;8.53;;;;;;;26.82;38.85;96478.34;4973470;28;20433;-71
2023/09/08 09:53:07;;;;;;;8.83;7.50;;;;;;;27.27;38.54;96469.97;4974205;28;20189;-71
2023/09/08 09:55:33;;;;;;;12.70;8.90;;;;;;;26.98;39.16;96474.00;4971973;28;20439;-69
2023/09/08 09:58:03;;;;;;;14.80;9.93;;;;;;;26.80;39.80;96472.28;4967483;28;21017;-69
2023/09/08 10:00:31;;;;;;;12.10;10.50;;;;;;;27.55;37.96;96479.34;4969696;28;20472;-70
2023/09/08 10:02:58;;;;;;;11.77;9.40;;;;;;;27.49;38.93;96480.03;4969633;28;20505;-70
2023/09/08 10:05:25;;;;;;;10.00;8.90;;;;;;;27.04;38.62;96478.69;4966102;28;20498;-70
2023/09/08 10:07:51;;;;;;;10.70;9.60;;;;;;;26.79;39.73;96480.53;4967012;28;20853;-71
2023/09/08 10:10:17;;;;;;;12.93;8.30;;;;;;;27.31;38.97;96473.97;4973301;28;20529;-69
2023/09/08 10:12:45;;;;;;;9.30;8.40;;;;;;;27.09;39.27;96473.63;4967324;28;20523;-70
2023/09/08 10:15:12;;;;;;;9.60;8.80;;;;;;;26.27;41.21;96475.31;4967616;28;20449;-69
2023/09/08 10:17:40;;;;;;;19.40;10.70;;;;;;;26.16;42.75;96466.56;4963867;28;20432;-68
2023/09/08 10:20:28;;;;;;;8.83;7.93;;;;;;;27.03;40.64;96466.25;4963922;28;20500;-70
2023/09/08 10:23:06;;;;;;;8.10;7.30;;;;;;;27.50;40.09;96464.69;4979998;28;20962;-70
2023/09/08 10:25:37;;;;;;;10.47;9.13;;;;;;;26.89;41.06;96464.22;4983608;28;21011;-67
2023/09/08 10:28:03;;;;;;;9.40;7.70;;;;;;;27.18;40.77;96461.00;4986897;28;20439;-69
2023/09/08 10:30:30;;;;;;;12.07;8.90;;;;;;;27.44;39.64;96466.22;4986597;28;20436;-66
2023/09/08 10:32:57;;;;;;;13.27;9.77;;;;;;;27.00;40.33;96462.03;4987413;28;20439;-67
2023/09/08 10:35:23;;;;;;;9.33;8.40;;;;;;;26.54;42.19;96455.41;4984558;28;20439;-70
2023/09/08 10:37:48;;;;;;;12.90;11.13;;;;;;;27.01;40.70;96454.78;4978390;28;20808;-68
2023/09/08 10:40:22;;;;;;;10.20;8.57;;;;;;;26.92;41.48;96453.09;4978475;28;20468;-66
2023/09/08 10:42:48;;;;;;;11.90;9.10;;;;;;;27.13;41.41;96450.72;4982580;28;20216;-67
2023/09/08 10:45:18;;;;;;;15.67;10.80;;;;;;;27.64;39.76;96454.06;4981959;28;20468;-69
2023/09/08 10:47:46;;;;;;;12.77;11.57;;;;;;;26.64;41.08;96455.25;4987046;28;20191;-70
2023/09/08 10:50:19;;;;;;;21.30;12.60;;;;;;;26.52;41.78;96446.63;4976538;28;20479;-70
2023/09/08 10:52:45;;;;;;;12.60;9.13;;;;;;;26.63;41.84;96443.66;4989899;28;20435;-70
2023/09/08 10:55:12;;;;;;;10.33;8.97;;;;;;;27.18;41.09;96440.28;4983319;28;20439;-70
2023/09/08 10:57:45;;;;;;;12.07;9.30;;;;;;;27.59;40.24;96440.25;4986350;28;20432;-68
2023/09/08 11:00:14;;;;;;;15.13;10.17;;;;;;;26.67;42.17;96439.63;4976112;28;20469;-69
2023/09/08 11:02:41;;;;;;;10.00;9.10;;;;;;;26.66;43.05;96440.63;4967020;28;20480;-68
2023/09/08 11:05:10;;;;;;;10.73;9.63;;;;;;;26.61;42.99;96443.81;4968528;28;20807;-70
2023/09/08 11:07:39;;;;;;;10.77;9.50;;;;;;;26.33;43.40;96448.59;4965472;28;20446;-69
2023/09/08 11:10:06;;;;;;;10.20;9.20;;;;;;;26.81;42.92;96438.97;4966860;28;20592;-69
2023/09/08 11:12:32;;;;;;;10.20;9.30;;;;;;;26.77;42.78;96442.16;4966981;28;20548;-67
2023/09/08 11:15:03;;;;;;;12.07;10.03;;;;;;;27.01;42.30;96433.25;4968923;28;21010;-69
2023/09/08 11:17:28;;;;;;;13.97;11.60;;;;;;;26.36;43.77;96442.91;4967261;28;20292;-68
2023/09/08 11:19:54;;;;;;;14.10;12.60;;;;;;;26.38;43.91;96438.19;4966019;28;20436;-67
2023/09/08 11:22:24;;;;;;;12.00;10.83;;;;;;;26.46;44.07;96441.91;4965621;28;20312;-66